Time;durP1;ratioP1;P1;durP2;ratioP2;P2;SDS_P1;SDS_P2;PMS_P1;PMS_P2;Temp;Humidity;BMP_temperature;BMP_pressure;BME280_temperature;BME280_humidity;BME280_pressure;Samples;Min_cycle;Max_cycle;Signal;HPM_P1;HPM_P2
2022/01/12 00:00:48;;;;;;;142.60;43.40;;;;;;;;;;5147402;27;20043;-66
2022/01/12 00:03:14;;;;;;;136.98;45.40;;;;;;;;;;5130144;27;20047;-65
2022/01/12 00:05:40;;;;;;;163.80;48.33;;;;;;;;;;5148640;27;20054;-65
2022/01/12 00:08:08;;;;;;;142.10;45.65;;;;;;;;;;5148825;27;20132;-65
2022/01/12 00:10:34;;;;;;;159.95;45.88;;;;;;;;;;5147497;27;20054;-65
2022/01/12 00:13:00;;;;;;;160.18;46.08;;;;;;;;;;5148184;27;20073;-65
2022/01/12 00:15:26;;;;;;;171.60;48.33;;;;;;;;;;5146769;27;20051;-65
2022/01/12 00:17:53;;;;;;;155.52;43.75;;;;;;;;;;5149132;27;20043;-66
2022/01/12 00:20:19;;;;;;;158.18;44.58;;;;;;;;;;5147625;27;20035;-65
2022/01/12 00:22:45;;;;;;;183.75;46.22;;;;;;;;;;5148529;27;20098;-65
2022/01/12 00:33:16;;;;;;;217.52;47.90;;;;;;;;;;5146648;27;20052;-65
2022/01/12 00:35:46;;;;;;;202.07;48.92;;;;;;;;;;5127408;28;20062;-65
2022/01/12 00:38:13;;;;;;;234.52;52.42;;;;;;;;;;5127421;28;20058;-65
2022/01/12 00:40:41;;;;;;;232.23;50.42;;;;;;;;;;5143483;27;20044;-65
2022/01/12 00:43:07;;;;;;;;;;;;;;;;;;5147030;27;20086;-65
2022/01/12 00:45:34;;;;;;;210.48;47.13;;;;;;;;;;5146663;27;19923;-65
2022/01/12 00:48:00;;;;;;;262.90;51.83;;;;;;;;;;5148224;27;20047;-65
2022/01/12 00:50:26;;;;;;;231.15;47.00;;;;;;;;;;5146345;27;20051;-65
2022/01/12 00:52:53;;;;;;;227.13;50.75;;;;;;;;;;5147766;27;20039;-65
2022/01/12 00:55:20;;;;;;;240.90;50.90;;;;;;;;;;5147598;27;20064;-65
2022/01/12 00:57:46;;;;;;;252.60;51.97;;;;;;;;;;5147983;27;20171;-65
2022/01/12 01:00:13;;;;;;;288.05;51.97;;;;;;;;;;5147169;27;20051;-65
2022/01/12 01:02:39;;;;;;;229.93;50.63;;;;;;;;;;5143653;27;20078;-65
2022/01/12 01:05:05;;;;;;;207.43;49.80;;;;;;;;;;5127035;28;20114;-65
2022/01/12 01:07:31;;;;;;;246.10;53.45;;;;;;;;;;5127134;28;20184;-65
2022/01/12 01:10:05;;;;;;;277.40;54.08;;;;;;;;;;5145189;27;20058;-65
2022/01/12 01:12:33;;;;;;;269.67;46.40;;;;;;;;;;5147723;27;20083;-65
2022/01/12 01:25:42;;;;;;;266.95;48.47;;;;;;;;;;5147550;27;20068;-66
2022/01/12 01:28:09;;;;;;;453.45;57.10;;;;;;;;;;5145906;27;20051;-65
2022/01/12 01:30:36;;;;;;;304.05;48.10;;;;;;;;;;5146664;27;20184;-65
2022/01/12 01:33:08;;;;;;;360.25;50.30;;;;;;;;;;5147326;27;20051;-65
2022/01/12 01:35:35;;;;;;;460.30;56.33;;;;;;;;;;5146329;27;20068;-65
2022/01/12 01:38:02;;;;;;;368.65;52.00;;;;;;;;;;5146441;27;20065;-65
2022/01/12 01:40:32;;;;;;;394.73;50.20;;;;;;;;;;5147041;27;20055;-65
2022/01/12 01:53:41;;;;;;;342.75;46.40;;;;;;;;;;5146676;27;20096;-65
2022/01/12 01:56:07;;;;;;;253.68;43.03;;;;;;;;;;5146591;27;20316;-65
2022/01/12 01:58:34;;;;;;;245.40;39.33;;;;;;;;;;5135853;27;20039;-65
2022/01/12 02:01:00;;;;;;;220.93;43.00;;;;;;;;;;5146153;27;20035;-65
2022/01/12 02:03:28;;;;;;;227.80;42.70;;;;;;;;;;5146447;27;20401;-65
2022/01/12 02:05:54;;;;;;;281.42;45.45;;;;;;;;;;5145944;27;20039;-65
2022/01/12 02:08:20;;;;;;;251.10;43.42;;;;;;;;;;5145167;27;20049;-65
2022/01/12 02:10:46;;;;;;;285.48;45.63;;;;;;;;;;5146138;27;20035;-65
2022/01/12 02:13:12;;;;;;;241.20;45.95;;;;;;;;;;5146776;27;20125;-65
2022/01/12 02:15:44;;;;;;;186.98;40.95;;;;;;;;;;5145766;27;20047;-65
2022/01/12 02:18:39;;;;;;;191.90;40.63;;;;;;;;;;5146403;27;20505;-65
2022/01/12 02:40:40;;;;;;;140.07;34.80;;;;;;;;;;5136528;27;20039;-65
2022/01/12 02:43:14;;;;;;;126.20;31.92;;;;;;;;;;5145610;27;20035;-65
2022/01/12 02:51:27;;;;;;;130.15;32.90;;;;;;;;;;5144083;27;20422;-65
2022/01/12 02:53:53;;;;;;;119.82;31.15;;;;;;;;;;5145757;27;20045;-65
2022/01/12 02:56:24;;;;;;;129.25;33.22;;;;;;;;;;5145567;27;20082;-65
2022/01/12 02:58:50;;;;;;;145.48;33.22;;;;;;;;;;5145735;27;20567;-65
2022/01/12 03:03:46;;;;;;;120.38;30.52;;;;;;;;;;5143463;27;20064;-65
2022/01/12 03:06:18;;;;;;;119.72;31.67;;;;;;;;;;5144012;27;20073;-65
2022/01/12 03:08:44;;;;;;;111.47;30.75;;;;;;;;;;5145454;27;20050;-65
2022/01/12 03:11:11;;;;;;;110.57;31.70;;;;;;;;;;5145183;28;20176;-65
2022/01/12 03:13:38;;;;;;;117.13;31.92;;;;;;;;;;5145462;28;20042;-65
2022/01/12 03:16:12;;;;;;;117.35;31.92;;;;;;;;;;5143600;28;20054;-65
2022/01/12 03:18:38;;;;;;;130.80;32.67;;;;;;;;;;5145658;27;20051;-65
2022/01/12 03:21:05;;;;;;;143.02;32.25;;;;;;;;;;5144483;28;20114;-65
2022/01/12 03:23:31;;;;;;;143.50;33.17;;;;;;;;;;5145076;28;20051;-65
2022/01/12 03:25:58;;;;;;;137.48;33.60;;;;;;;;;;5144080;28;20058;-65
2022/01/12 03:28:24;;;;;;;132.63;32.60;;;;;;;;;;5145351;28;20043;-65
2022/01/12 03:30:58;;;;;;;133.93;34.25;;;;;;;;;;5144489;28;20047;-65
2022/01/12 03:36:25;;;;;;;149.63;37.80;;;;;;;;;;5144954;28;20089;-66
2022/01/12 03:39:02;;;;;;;154.45;37.15;;;;;;;;;;5143937;28;20054;-65
2022/01/12 03:41:30;;;;;;;174.43;37.65;;;;;;;;;;5144805;28;20122;-66
2022/01/12 03:43:58;;;;;;;164.38;39.72;;;;;;;;;;5145125;28;20468;-65
2022/01/12 03:46:27;;;;;;;171.73;38.92;;;;;;;;;;5143619;28;20107;-65
2022/01/12 03:48:53;;;;;;;159.95;39.17;;;;;;;;;;5144895;28;20042;-65
2022/01/12 03:51:19;;;;;;;191.25;39.17;;;;;;;;;;5144041;28;20043;-65
2022/01/12 03:53:45;;;;;;;176.88;38.67;;;;;;;;;;5144231;28;20498;-65
2022/01/12 03:56:11;;;;;;;168.88;39.67;;;;;;;;;;5144785;28;20039;-65
2022/01/12 03:58:37;;;;;;;185.00;39.42;;;;;;;;;;5145046;28;20043;-65
2022/01/12 04:01:04;;;;;;;154.57;38.75;;;;;;;;;;5145635;27;20118;-65
2022/01/12 04:03:36;;;;;;;159.38;39.17;;;;;;;;;;5148953;27;20049;-66
2022/01/12 04:08:48;;;;;;;146.93;36.08;;;;;;;;;;5149134;27;20050;-65
2022/01/12 04:11:14;;;;;;;162.23;37.13;;;;;;;;;;5148058;27;20447;-65
2022/01/12 04:13:42;;;;;;;150.63;36.20;;;;;;;;;;5147361;27;20047;-65
2022/01/12 04:16:08;;;;;;;154.85;37.17;;;;;;;;;;5148151;27;20109;-65
2022/01/12 04:18:35;;;;;;;158.77;37.55;;;;;;;;;;5148658;27;20045;-65
2022/01/12 04:21:06;;;;;;;158.20;36.72;;;;;;;;;;5146955;27;20134;-65
2022/01/12 04:23:32;;;;;;;163.88;38.47;;;;;;;;;;5147695;27;20414;-65
2022/01/12 04:26:00;;;;;;;160.43;38.22;;;;;;;;;;5148290;27;20048;-65
2022/01/12 04:28:28;;;;;;;202.63;41.10;;;;;;;;;;5148152;27;20125;-65
2022/01/12 04:30:55;;;;;;;157.95;37.00;;;;;;;;;;5147906;27;20106;-65
2022/01/12 04:33:22;;;;;;;239.23;42.83;;;;;;;;;;5148142;27;20043;-65
2022/01/12 04:35:51;;;;;;;226.63;41.70;;;;;;;;;;5146330;27;20326;-65
2022/01/12 04:38:18;;;;;;;201.15;36.88;;;;;;;;;;5148430;27;20050;-65
2022/01/12 04:40:45;;;;;;;244.95;43.03;;;;;;;;;;5147669;27;20122;-65
2022/01/12 04:43:11;;;;;;;220.13;41.28;;;;;;;;;;5147009;27;20426;-65
2022/01/12 04:45:55;;;;;;;260.30;43.33;;;;;;;;;;5147677;27;20047;-65
2022/01/12 04:50:49;;;;;;;262.98;42.25;;;;;;;;;;5147122;27;20126;-66
2022/01/12 04:53:17;;;;;;;220.95;38.17;;;;;;;;;;5146426;27;20050;-65
2022/01/12 04:55:43;;;;;;;408.67;48.78;;;;;;;;;;5147315;27;20510;-66
2022/01/12 04:58:10;;;;;;;260.40;40.88;;;;;;;;;;5146705;27;20134;-65
2022/01/12 05:00:37;;;;;;;230.52;35.58;;;;;;;;;;5147188;27;20405;-65
2022/01/12 05:09:07;;;;;;;382.25;45.38;;;;;;;;;;5126082;28;20059;-66
2022/01/12 05:14:07;;;;;;;442.90;51.42;;;;;;;;;;5140462;27;20043;-66
2022/01/12 05:16:33;;;;;;;292.80;40.70;;;;;;;;;;5145851;27;20052;-66
2022/01/12 05:19:00;;;;;;;332.25;43.17;;;;;;;;;;5146295;27;20076;-66
2022/01/12 05:21:26;;;;;;;233.95;38.33;;;;;;;;;;5145594;27;20104;-66
2022/01/12 05:23:53;;;;;;;296.63;41.28;;;;;;;;;;5147509;27;20122;-65
2022/01/12 05:26:19;;;;;;;228.00;40.35;;;;;;;;;;5146934;27;20530;-65
2022/01/12 05:28:45;;;;;;;129.57;33.03;;;;;;;;;;5147220;27;20049;-65
2022/01/12 05:31:13;;;;;;;159.18;36.10;;;;;;;;;;5145613;27;20198;-65
2022/01/12 05:33:46;;;;;;;138.75;32.97;;;;;;;;;;5147384;27;20039;-65
2022/01/12 05:36:12;;;;;;;121.60;31.08;;;;;;;;;;5146564;27;20106;-65
2022/01/12 05:38:38;;;;;;;184.68;36.70;;;;;;;;;;5146645;27;20072;-65
2022/01/12 05:41:05;;;;;;;242.55;42.03;;;;;;;;;;5146838;27;20167;-65
2022/01/12 05:43:33;;;;;;;119.03;31.65;;;;;;;;;;5146153;27;20058;-67
2022/01/12 05:46:08;;;;;;;523.67;59.28;;;;;;;;;;5146686;27;20043;-65
2022/01/12 05:51:18;;;;;;;289.20;42.45;;;;;;;;;;5146166;27;20053;-65
2022/01/12 05:53:44;;;;;;;160.02;34.22;;;;;;;;;;5146477;27;20107;-65
2022/01/12 05:56:11;;;;;;;136.95;31.55;;;;;;;;;;5145131;27;20043;-65
2022/01/12 05:58:37;;;;;;;127.10;33.75;;;;;;;;;;5145588;27;20102;-65
2022/01/12 06:01:03;;;;;;;123.93;31.00;;;;;;;;;;5146654;27;20035;-65
2022/01/12 06:03:29;;;;;;;141.00;33.28;;;;;;;;;;5146549;27;20053;-65
2022/01/12 06:05:55;;;;;;;144.35;32.22;;;;;;;;;;5144299;27;20043;-65
2022/01/12 06:08:21;;;;;;;141.30;33.65;;;;;;;;;;5146286;27;20039;-65
2022/01/12 06:10:47;;;;;;;111.55;29.92;;;;;;;;;;5146164;27;20054;-65
2022/01/12 06:13:14;;;;;;;140.18;34.30;;;;;;;;;;5146699;27;20043;-65
2022/01/12 06:15:40;;;;;;;158.63;35.10;;;;;;;;;;5145776;27;20043;-65
2022/01/12 06:18:06;;;;;;;135.13;33.58;;;;;;;;;;5146171;27;20039;-65
2022/01/12 06:20:32;;;;;;;190.95;37.60;;;;;;;;;;5144951;27;20050;-65
2022/01/12 06:22:58;;;;;;;120.22;30.60;;;;;;;;;;5146150;27;20046;-65
2022/01/12 06:25:24;;;;;;;182.90;36.15;;;;;;;;;;5146038;27;20047;-65
2022/01/12 06:27:57;;;;;;;259.42;42.35;;;;;;;;;;5146495;27;20035;-65
2022/01/12 06:32:54;;;;;;;200.65;36.63;;;;;;;;;;5145302;27;20051;-65
2022/01/12 06:35:21;;;;;;;289.05;42.13;;;;;;;;;;5145339;27;20047;-65
2022/01/12 06:37:47;;;;;;;366.73;44.40;;;;;;;;;;5145896;27;20047;-65
2022/01/12 06:40:14;;;;;;;234.90;34.22;;;;;;;;;;5145759;27;20043;-65
2022/01/12 06:42:40;;;;;;;260.27;36.67;;;;;;;;;;5144863;27;20035;-65
2022/01/12 06:45:07;;;;;;;331.88;42.95;;;;;;;;;;5145050;27;20058;-65
2022/01/12 06:47:33;;;;;;;215.82;33.50;;;;;;;;;;5144435;27;20043;-65
2022/01/12 06:49:59;;;;;;;182.23;29.95;;;;;;;;;;5144472;27;20054;-65
2022/01/12 06:52:25;;;;;;;213.68;33.45;;;;;;;;;;5144265;27;20039;-66
2022/01/12 06:54:52;;;;;;;218.80;33.45;;;;;;;;;;5145051;27;20096;-65
2022/01/12 06:57:18;;;;;;;283.42;38.22;;;;;;;;;;5145789;27;20043;-65
2022/01/12 06:59:44;;;;;;;274.33;38.55;;;;;;;;;;5148418;27;20045;-65
2022/01/12 07:02:11;;;;;;;225.75;35.35;;;;;;;;;;5144772;27;20039;-64
2022/01/12 07:04:37;;;;;;;259.33;35.95;;;;;;;;;;5142052;27;20039;-65
2022/01/12 07:07:03;;;;;;;281.95;39.53;;;;;;;;;;5143722;27;20038;-65
2022/01/12 07:09:29;;;;;;;281.23;37.00;;;;;;;;;;5146526;27;20043;-66
2022/01/12 07:11:55;;;;;;;159.68;29.52;;;;;;;;;;5145021;28;20095;-65
2022/01/12 07:14:21;;;;;;;205.18;34.72;;;;;;;;;;5159341;27;20050;-65
2022/01/12 07:16:47;;;;;;;240.77;33.25;;;;;;;;;;5147495;27;20086;-65
2022/01/12 07:19:14;;;;;;;301.38;41.67;;;;;;;;;;5144664;28;20544;-65
2022/01/12 07:21:41;;;;;;;216.85;33.38;;;;;;;;;;5143965;27;20126;-65
2022/01/12 07:24:07;;;;;;;281.10;39.50;;;;;;;;;;5148952;27;20096;-65
2022/01/12 07:26:34;;;;;;;229.23;34.55;;;;;;;;;;5145518;27;20067;-65
2022/01/12 07:29:00;;;;;;;280.50;38.33;;;;;;;;;;5144963;27;20044;-66
2022/01/12 07:31:26;;;;;;;185.82;31.65;;;;;;;;;;5140258;27;20046;-66
2022/01/12 07:33:54;;;;;;;148.02;31.23;;;;;;;;;;5143648;28;20148;-66
2022/01/12 07:36:20;;;;;;;191.43;34.85;;;;;;;;;;5136308;27;20131;-67
2022/01/12 07:38:49;;;;;;;169.88;31.67;;;;;;;;;;5147318;27;20039;-66
2022/01/12 07:41:15;;;;;;;164.38;30.80;;;;;;;;;;5147618;27;20071;-65
2022/01/12 07:43:41;;;;;;;150.88;31.60;;;;;;;;;;5148935;27;20122;-66
2022/01/12 07:46:08;;;;;;;207.93;35.22;;;;;;;;;;5148643;27;20475;-66
2022/01/12 07:48:34;;;;;;;169.05;29.10;;;;;;;;;;5148930;27;20067;-66
2022/01/12 07:51:00;;;;;;;199.25;35.28;;;;;;;;;;5148370;27;20482;-66
2022/01/12 07:53:26;;;;;;;201.40;34.90;;;;;;;;;;5148684;27;20181;-66
2022/01/12 07:55:52;;;;;;;163.80;32.42;;;;;;;;;;5149343;27;20138;-66
2022/01/12 07:58:18;;;;;;;123.07;31.08;;;;;;;;;;5149068;27;20047;-66
2022/01/12 08:00:44;;;;;;;228.88;34.83;;;;;;;;;;5148232;27;20054;-66
2022/01/12 08:03:12;;;;;;;190.30;35.08;;;;;;;;;;5149096;27;20042;-65
2022/01/12 08:05:38;;;;;;;188.38;35.00;;;;;;;;;;5148311;27;20051;-65
2022/01/12 08:08:04;;;;;;;340.63;44.22;;;;;;;;;;5149094;27;20134;-66
2022/01/12 08:10:30;;;;;;;131.40;31.45;;;;;;;;;;5149026;27;20184;-66
2022/01/12 08:12:57;;;;;;;186.43;34.40;;;;;;;;;;5148561;27;20511;-66
2022/01/12 08:15:23;;;;;;;164.98;31.40;;;;;;;;;;5147864;27;20039;-65
2022/01/12 08:17:49;;;;;;;251.18;38.42;;;;;;;;;;5147540;27;20061;-65
2022/01/12 08:20:18;;;;;;;257.75;38.97;;;;;;;;;;5149608;27;20068;-66
2022/01/12 08:22:44;;;;;;;200.70;35.15;;;;;;;;;;5148358;27;20050;-66
2022/01/12 08:25:12;;;;;;;197.90;33.85;;;;;;;;;;5150605;27;20046;-66
2022/01/12 08:27:38;;;;;;;204.48;32.17;;;;;;;;;;5157231;27;20035;-66
2022/01/12 08:30:06;;;;;;;215.43;34.22;;;;;;;;;;5145535;27;20566;-66
2022/01/12 08:32:32;;;;;;;234.27;34.17;;;;;;;;;;5146862;27;20047;-66
2022/01/12 08:34:59;;;;;;;219.25;32.50;;;;;;;;;;5145220;27;20079;-66
2022/01/12 08:37:25;;;;;;;296.70;37.15;;;;;;;;;;5147424;27;20220;-66
2022/01/12 08:39:52;;;;;;;223.80;32.17;;;;;;;;;;5145315;27;20055;-66
2022/01/12 08:42:19;;;;;;;225.35;31.02;;;;;;;;;;5146482;27;20047;-66
2022/01/12 08:44:45;;;;;;;245.20;30.30;;;;;;;;;;5149546;27;20039;-66
2022/01/12 08:47:11;;;;;;;217.90;29.67;;;;;;;;;;5143172;27;20099;-66
2022/01/12 08:49:37;;;;;;;337.90;40.25;;;;;;;;;;5138569;27;20040;-66
2022/01/12 08:52:05;;;;;;;358.25;41.33;;;;;;;;;;5145756;27;20038;-66
2022/01/12 08:54:31;;;;;;;288.80;37.30;;;;;;;;;;5146353;27;20053;-66
2022/01/12 08:56:57;;;;;;;197.18;31.88;;;;;;;;;;5145992;27;20418;-66
2022/01/12 08:59:24;;;;;;;211.88;34.78;;;;;;;;;;5146438;27;20046;-66
2022/01/12 09:01:50;;;;;;;218.75;31.10;;;;;;;;;;5154215;27;20047;-66
2022/01/12 09:04:16;;;;;;;220.52;32.20;;;;;;;;;;5148208;27;20066;-66
2022/01/12 09:06:42;;;;;;;149.68;27.80;;;;;;;;;;5150590;27;21613;-66
2022/01/12 09:09:08;;;;;;;197.35;31.52;;;;;;;;;;5154613;27;20043;-66
2022/01/12 09:11:34;;;;;;;310.77;33.45;;;;;;;;;;5145240;27;20411;-66
2022/01/12 09:14:00;;;;;;;199.82;25.38;;;;;;;;;;5146395;27;20100;-66
2022/01/12 09:16:27;;;;;;;270.63;31.88;;;;;;;;;;5143371;27;20043;-65
2022/01/12 09:18:53;;;;;;;272.55;32.50;;;;;;;;;;5144417;27;20035;-66
2022/01/12 09:21:19;;;;;;;266.15;33.55;;;;;;;;;;5136868;27;20250;-65
2022/01/12 09:23:45;;;;;;;205.18;28.38;;;;;;;;;;5146225;27;20073;-66
2022/01/12 09:26:11;;;;;;;199.00;24.85;;;;;;;;;;5146435;27;20054;-66
2022/01/12 09:28:38;;;;;;;280.08;30.50;;;;;;;;;;5142592;27;20031;-66
2022/01/12 09:31:04;;;;;;;225.13;28.48;;;;;;;;;;5140037;27;20039;-66
2022/01/12 09:33:30;;;;;;;163.82;23.48;;;;;;;;;;5146208;27;20039;-65
2022/01/12 09:35:56;;;;;;;126.45;21.55;;;;;;;;;;5144329;27;20047;-66
2022/01/12 09:38:22;;;;;;;189.32;24.08;;;;;;;;;;5146026;27;20051;-66
2022/01/12 09:40:51;;;;;;;149.35;19.35;;;;;;;;;;5145459;27;20043;-66
2022/01/12 09:43:17;;;;;;;212.52;22.73;;;;;;;;;;5146270;27;20043;-66
2022/01/12 09:45:49;;;;;;;98.45;16.88;;;;;;;;;;5145141;27;20047;-66
2022/01/12 09:48:16;;;;;;;164.88;21.30;;;;;;;;;;5145111;27;20437;-66
2022/01/12 09:50:42;;;;;;;285.50;25.67;;;;;;;;;;5141669;27;20051;-66
2022/01/12 09:53:08;;;;;;;133.55;16.92;;;;;;;;;;5142241;27;20564;-66
2022/01/12 09:55:34;;;;;;;117.88;16.60;;;;;;;;;;5144505;27;20043;-66
2022/01/12 09:58:00;;;;;;;220.15;21.27;;;;;;;;;;5142964;27;20840;-66
2022/01/12 10:00:27;;;;;;;206.98;19.08;;;;;;;;;;5143316;27;20047;-66
2022/01/12 10:02:53;;;;;;;187.48;21.52;;;;;;;;;;5145535;27;20039;-66
2022/01/12 10:05:28;;;;;;;100.20;16.10;;;;;;;;;;5143123;27;20039;-66
2022/01/12 10:07:54;;;;;;;163.82;19.05;;;;;;;;;;5136863;27;20046;-66
2022/01/12 10:10:20;;;;;;;138.77;18.48;;;;;;;;;;5137764;27;20054;-66
2022/01/12 10:12:52;;;;;;;102.20;17.33;;;;;;;;;;5142911;27;20168;-66
2022/01/12 10:15:18;;;;;;;144.55;18.73;;;;;;;;;;5143771;27;20504;-66
2022/01/12 10:17:46;;;;;;;162.43;19.20;;;;;;;;;;5142279;27;20054;-66
2022/01/12 10:20:12;;;;;;;106.28;14.13;;;;;;;;;;5134695;27;20572;-66
2022/01/12 10:22:39;;;;;;;87.47;15.05;;;;;;;;;;5136561;27;20124;-66
2022/01/12 10:25:16;;;;;;;117.60;16.70;;;;;;;;;;5144660;27;20071;-66
2022/01/12 10:27:42;;;;;;;113.18;16.23;;;;;;;;;;5144095;27;20039;-66
2022/01/12 10:30:08;;;;;;;92.68;14.93;;;;;;;;;;5141627;27;20050;-66
2022/01/12 10:32:34;;;;;;;68.90;13.32;;;;;;;;;;5143101;27;20506;-65
2022/01/12 10:35:00;;;;;;;100.93;14.70;;;;;;;;;;5143887;27;20046;-65
2022/01/12 10:37:28;;;;;;;89.55;10.77;;;;;;;;;;5138350;27;20127;-66
2022/01/12 10:39:55;;;;;;;153.20;17.83;;;;;;;;;;5144244;27;20039;-66
2022/01/12 10:42:26;;;;;;;121.03;17.30;;;;;;;;;;5137419;27;20055;-66
2022/01/12 10:44:57;;;;;;;71.43;11.98;;;;;;;;;;5143892;27;20061;-66
2022/01/12 10:47:29;;;;;;;61.90;12.40;;;;;;;;;;5142497;27;20069;-66
2022/01/12 10:49:55;;;;;;;41.67;10.30;;;;;;;;;;5145457;27;20053;-67
2022/01/12 10:52:22;;;;;;;51.13;10.50;;;;;;;;;;5144038;27;20054;-66
2022/01/12 10:54:53;;;;;;;47.05;9.65;;;;;;;;;;5142435;27;20043;-66
2022/01/12 10:57:23;;;;;;;45.22;10.13;;;;;;;;;;5143894;27;20031;-66
2022/01/12 11:00:06;;;;;;;32.95;10.05;;;;;;;;;;5144858;27;20097;-66
2022/01/12 11:02:33;;;;;;;36.17;9.30;;;;;;;;;;5139598;27;20047;-66
2022/01/12 11:05:00;;;;;;;37.57;9.60;;;;;;;;;;5144768;27;20039;-66
2022/01/12 11:07:27;;;;;;;31.98;8.90;;;;;;;;;;5142065;27;20047;-66
2022/01/12 11:09:57;;;;;;;21.70;9.35;;;;;;;;;;5135517;27;20046;-66
2022/01/12 11:12:24;;;;;;;27.83;10.27;;;;;;;;;;5143158;27;20047;-66
2022/01/12 11:14:50;;;;;;;39.67;9.98;;;;;;;;;;5144402;28;20039;-66
2022/01/12 11:17:16;;;;;;;37.97;10.45;;;;;;;;;;5142584;28;20040;-67
2022/01/12 11:19:55;;;;;;;39.35;10.98;;;;;;;;;;5137417;28;20122;-66
2022/01/12 11:22:28;;;;;;;41.35;10.13;;;;;;;;;;5143281;28;20050;-66
2022/01/12 11:24:54;;;;;;;37.17;10.18;;;;;;;;;;5143559;28;20043;-66
2022/01/12 11:27:23;;;;;;;38.20;11.18;;;;;;;;;;5143284;28;20092;-66
2022/01/12 11:29:49;;;;;;;39.75;10.80;;;;;;;;;;5144489;28;20050;-66
2022/01/12 11:32:21;;;;;;;52.65;11.35;;;;;;;;;;5136931;28;20368;-66
2022/01/12 11:34:58;;;;;;;36.10;10.65;;;;;;;;;;5138982;28;20079;-67
2022/01/12 11:37:25;;;;;;;30.67;9.60;;;;;;;;;;5139960;28;20077;-66
2022/01/12 11:39:51;;;;;;;45.05;11.57;;;;;;;;;;5156000;27;20093;-66
2022/01/12 11:42:18;;;;;;;44.70;10.23;;;;;;;;;;5146320;27;20112;-67
2022/01/12 11:44:45;;;;;;;32.30;9.63;;;;;;;;;;5160952;27;20043;-67
2022/01/12 11:47:15;;;;;;;39.70;10.33;;;;;;;;;;5144160;27;20296;-66
2022/01/12 11:49:44;;;;;;;34.30;10.15;;;;;;;;;;5151108;27;20296;-67
2022/01/12 11:52:17;;;;;;;44.97;9.95;;;;;;;;;;5145369;27;20043;-67
2022/01/12 11:54:47;;;;;;;36.67;11.07;;;;;;;;;;5129254;28;20035;-67
2022/01/12 11:57:18;;;;;;;41.50;10.65;;;;;;;;;;5149716;27;20160;-67
2022/01/12 11:59:52;;;;;;;73.68;12.38;;;;;;;;;;5142982;27;20035;-66
2022/01/12 12:02:19;;;;;;;30.25;10.75;;;;;;;;;;5132960;28;20540;-66
2022/01/12 12:04:53;;;;;;;69.10;11.85;;;;;;;;;;5133772;28;20051;-67
2022/01/12 12:07:20;;;;;;;42.53;11.88;;;;;;;;;;5136927;28;20050;-66
2022/01/12 12:09:56;;;;;;;77.72;13.43;;;;;;;;;;5139413;27;20104;-66
2022/01/12 12:12:22;;;;;;;44.63;11.70;;;;;;;;;;5138104;27;20071;-66
2022/01/12 12:14:54;;;;;;;44.92;13.68;;;;;;;;;;5132001;28;20050;-66
2022/01/12 12:17:21;;;;;;;48.72;14.80;;;;;;;;;;5129244;28;20039;-66
2022/01/12 12:19:48;;;;;;;52.33;13.77;;;;;;;;;;5143878;27;20086;-66
2022/01/12 12:22:16;;;;;;;43.55;13.85;;;;;;;;;;5146110;27;20039;-66
2022/01/12 12:24:43;;;;;;;64.18;14.00;;;;;;;;;;5148542;27;20100;-66
2022/01/12 12:27:10;;;;;;;51.92;14.55;;;;;;;;;;5142835;27;20050;-66
2022/01/12 12:29:37;;;;;;;46.90;14.95;;;;;;;;;;5133435;27;20039;-66
2022/01/12 12:32:05;;;;;;;52.67;15.45;;;;;;;;;;5151607;27;20068;-66
2022/01/12 12:34:33;;;;;;;56.88;16.27;;;;;;;;;;5147944;27;20065;-66
2022/01/12 12:37:07;;;;;;;39.47;14.40;;;;;;;;;;5128017;27;20052;-66
2022/01/12 12:39:35;;;;;;;48.30;15.80;;;;;;;;;;5145571;27;20070;-66
2022/01/12 12:42:03;;;;;;;46.10;14.05;;;;;;;;;;5139803;27;20135;-66
2022/01/12 12:44:30;;;;;;;46.80;13.98;;;;;;;;;;5140747;27;20035;-66
2022/01/12 12:47:08;;;;;;;41.42;13.10;;;;;;;;;;5145977;27;20041;-66
2022/01/12 12:49:51;;;;;;;40.03;13.35;;;;;;;;;;5143014;27;20039;-66
2022/01/12 12:52:25;;;;;;;43.45;14.35;;;;;;;;;;5142534;27;20047;-67
2022/01/12 12:54:51;;;;;;;34.30;13.63;;;;;;;;;;5145525;27;20054;-67
2022/01/12 12:57:21;;;;;;;43.53;15.65;;;;;;;;;;5146258;27;20043;-67
2022/01/12 12:59:51;;;;;;;43.10;14.68;;;;;;;;;;5140816;27;20039;-67
2022/01/12 13:02:17;;;;;;;37.85;12.98;;;;;;;;;;5143420;27;20043;-66
2022/01/12 13:04:43;;;;;;;31.05;12.60;;;;;;;;;;5139002;27;20047;-67
2022/01/12 13:07:17;;;;;;;37.17;12.93;;;;;;;;;;5147577;27;20045;-67
2022/01/12 13:09:44;;;;;;;40.72;12.77;;;;;;;;;;5147559;27;20051;-67
2022/01/12 13:12:10;;;;;;;30.20;12.32;;;;;;;;;;5146084;27;20031;-66
2022/01/12 13:14:46;;;;;;;50.03;15.95;;;;;;;;;;5141082;27;20035;-66
2022/01/12 13:17:14;;;;;;;39.40;13.32;;;;;;;;;;5120070;27;20058;-66
2022/01/12 13:22:30;;;;;;;33.25;13.07;;;;;;;;;;5142028;27;20501;-66
2022/01/12 13:24:58;;;;;;;30.20;12.88;;;;;;;;;;5142669;27;20164;-66
2022/01/12 13:27:25;;;;;;;37.45;11.98;;;;;;;;;;5145417;27;20054;-66
2022/01/12 13:29:52;;;;;;;29.35;11.20;;;;;;;;;;5146378;27;20043;-66
2022/01/12 13:32:18;;;;;;;30.80;13.03;;;;;;;;;;5142803;27;20046;-67
2022/01/12 13:35:17;;;;;;;20.02;9.98;;;;;;;;;;5144215;27;20040;-67
2022/01/12 13:37:52;;;;;;;23.08;10.35;;;;;;;;;;5079089;28;20131;-67
2022/01/12 13:40:18;;;;;;;35.05;10.32;;;;;;;;;;5091202;28;20060;-67
2022/01/12 13:42:49;;;;;;;18.35;9.57;;;;;;;;;;5091719;28;20119;-67
2022/01/12 13:45:18;;;;;;;29.85;10.35;;;;;;;;;;5089414;28;20051;-67
2022/01/12 13:47:50;;;;;;;28.45;10.60;;;;;;;;;;5090682;28;20126;-67
2022/01/12 13:50:19;;;;;;;27.83;11.23;;;;;;;;;;5073491;28;20076;-67
2022/01/12 13:52:54;;;;;;;23.63;9.55;;;;;;;;;;5094271;28;20052;-66
2022/01/12 13:55:20;;;;;;;29.42;10.95;;;;;;;;;;5094898;28;20071;-66
2022/01/12 13:57:46;;;;;;;33.17;11.00;;;;;;;;;;5077270;28;20136;-66
2022/01/12 14:00:19;;;;;;;24.35;11.07;;;;;;;;;;5077714;28;20065;-67
2022/01/12 14:02:46;;;;;;;31.55;10.45;;;;;;;;;;5090824;28;20059;-67
2022/01/12 14:05:18;;;;;;;29.42;10.10;;;;;;;;;;5090909;28;20045;-67
2022/01/12 14:07:59;;;;;;;28.35;10.75;;;;;;;;;;5090988;28;20067;-67
2022/01/12 14:10:26;;;;;;;31.15;10.77;;;;;;;;;;5075006;28;20142;-67
2022/01/12 14:12:53;;;;;;;33.15;11.77;;;;;;;;;;5111359;27;20059;-67
2022/01/12 14:15:26;;;;;;;24.00;8.57;;;;;;;;;;5142513;27;20035;-65
2022/01/12 14:17:53;;;;;;;33.75;10.80;;;;;;;;;;5154414;27;20126;-67
2022/01/12 14:20:23;;;;;;;38.28;12.25;;;;;;;;;;5145585;27;20055;-65
2022/01/12 14:22:58;;;;;;;28.90;11.60;;;;;;;;;;5150232;27;20067;-67
2022/01/12 14:25:41;;;;;;;34.80;12.00;;;;;;;;;;5139592;27;20106;-67
2022/01/12 14:28:08;;;;;;;33.67;12.48;;;;;;;;;;5151084;27;20048;-67
2022/01/12 14:30:34;;;;;;;31.33;11.18;;;;;;;;;;5143918;27;20035;-67
2022/01/12 14:33:00;;;;;;;26.83;10.90;;;;;;;;;;5136614;27;20039;-66
2022/01/12 14:35:27;;;;;;;33.55;13.13;;;;;;;;;;5140492;27;20046;-67
2022/01/12 14:37:54;;;;;;;30.27;12.02;;;;;;;;;;5142689;27;20470;-65
2022/01/12 14:40:20;;;;;;;27.30;11.60;;;;;;;;;;5143847;27;20142;-67
2022/01/12 14:42:49;;;;;;;35.53;13.13;;;;;;;;;;5140419;27;20062;-67
2022/01/12 14:45:18;;;;;;;29.95;11.90;;;;;;;;;;5131241;27;20061;-66
2022/01/12 14:47:45;;;;;;;30.25;12.38;;;;;;;;;;5142361;27;20073;-66
2022/01/12 14:50:14;;;;;;;31.67;13.20;;;;;;;;;;5141739;27;20133;-67
2022/01/12 14:52:43;;;;;;;33.03;13.68;;;;;;;;;;5137424;27;20051;-67
2022/01/12 14:55:10;;;;;;;38.80;14.50;;;;;;;;;;5143284;27;20062;-67
2022/01/12 14:57:36;;;;;;;41.60;14.48;;;;;;;;;;5143391;27;20046;-67
2022/01/12 15:00:05;;;;;;;29.70;14.43;;;;;;;;;;5143511;27;20095;-67
2022/01/12 15:02:33;;;;;;;42.67;14.52;;;;;;;;;;5147991;27;20035;-67
2022/01/12 15:04:59;;;;;;;42.13;14.25;;;;;;;;;;5143709;27;20047;-67
2022/01/12 15:07:25;;;;;;;41.08;14.35;;;;;;;;;;5146618;27;20039;-67
2022/01/12 15:09:51;;;;;;;30.52;14.32;;;;;;;;;;5149307;27;20062;-67
2022/01/12 15:12:25;;;;;;;43.70;16.10;;;;;;;;;;5145374;27;20046;-67
2022/01/12 15:15:00;;;;;;;41.90;15.27;;;;;;;;;;5137406;27;20516;-67
2022/01/12 15:17:28;;;;;;;49.63;15.73;;;;;;;;;;5145664;27;20065;-67
2022/01/12 15:19:55;;;;;;;44.72;15.93;;;;;;;;;;5140195;27;20051;-67
2022/01/12 15:22:21;;;;;;;41.85;15.52;;;;;;;;;;5148745;27;20043;-67
2022/01/12 15:24:47;;;;;;;34.78;14.20;;;;;;;;;;5148971;27;20117;-67
2022/01/12 15:27:14;;;;;;;44.50;15.82;;;;;;;;;;5143184;27;20043;-67
2022/01/12 15:29:40;;;;;;;58.00;16.17;;;;;;;;;;5142711;28;20110;-67
2022/01/12 15:32:06;;;;;;;38.53;14.52;;;;;;;;;;5139029;28;20055;-66
2022/01/12 15:34:32;;;;;;;52.15;17.40;;;;;;;;;;5140156;28;20044;-66